createdAt,value
2019-05-01T00:00:16.301Z,5.1
2019-05-01T00:05:03.446Z,5.6
2019-05-01T00:09:50.482Z,6
2019-05-01T00:14:37.508Z,5.8
2019-05-01T00:19:24.780Z,6
2019-05-01T00:24:12.427Z,5.7
2019-05-01T00:28:59.552Z,5.5
2019-05-01T00:33:46.673Z,5.7
2019-05-01T00:38:35.687Z,5.8
2019-05-01T00:43:23.059Z,5.2
2019-05-01T00:48:10.853Z,5.3
2019-05-01T00:52:58.971Z,6.1
2019-05-01T00:57:46.457Z,6.1
2019-05-01T01:02:33.512Z,6.1
2019-05-01T01:07:20.275Z,6.7
2019-05-01T01:12:08.136Z,6.4
2019-05-01T01:16:55.286Z,6.5
2019-05-01T01:21:43.290Z,6.1
2019-05-01T01:26:31.517Z,6.5
2019-05-01T01:31:21.067Z,7
2019-05-01T01:36:08.187Z,6
2019-05-01T01:40:55.302Z,6.5
2019-05-01T01:45:42.574Z,6.9
2019-05-01T01:50:29.440Z,6.8
2019-05-01T01:55:16.683Z,6.3
2019-05-01T02:00:04.422Z,6.5
2019-05-01T02:04:51.305Z,6.6
2019-05-01T02:09:38.399Z,6.7
2019-05-01T02:14:25.306Z,6.5
2019-05-01T02:19:12.296Z,6.9
2019-05-01T02:23:59.550Z,6.9
2019-05-01T02:31:26.692Z,5.7
2019-05-01T02:36:15.600Z,6
2019-05-01T02:41:03.125Z,6.1
2019-05-01T02:45:50.155Z,6.4
2019-05-01T02:50:36.933Z,6.4
2019-05-01T02:55:24.657Z,6.2
2019-05-01T03:00:11.979Z,6.4
2019-05-01T03:04:58.949Z,6.7
2019-05-01T03:09:46.213Z,6.6
2019-05-01T03:14:33.886Z,6.9
2019-05-01T03:19:20.991Z,6.6
2019-05-01T03:25:11.198Z,5.3
2019-05-01T03:29:58.101Z,6.1
2019-05-01T03:34:51.899Z,6.5
2019-05-01T03:39:40.505Z,6.4
2019-05-01T03:44:27.458Z,6.5
2019-05-01T03:49:15.662Z,6.6
2019-05-01T03:54:02.766Z,6.5
2019-05-01T03:58:49.649Z,6
2019-05-01T04:03:36.341Z,7
2019-05-01T04:08:23.389Z,7.3
2019-05-01T04:13:10.857Z,8.1
2019-05-01T04:20:36.430Z,6.5
2019-05-01T04:25:23.725Z,6.4
2019-05-01T04:30:11.041Z,6.4
2019-05-01T04:34:58.051Z,6.6
2019-05-01T04:39:44.799Z,6.6
2019-05-01T04:44:31.914Z,7.2
2019-05-01T04:49:18.731Z,6.9
2019-05-01T04:54:08.013Z,6.9
2019-05-01T04:58:54.874Z,7.3
2019-05-01T05:03:43.062Z,7
2019-05-01T05:11:07.059Z,7.1
2019-05-01T05:15:53.822Z,6.2
2019-05-01T05:20:41.338Z,6.8
2019-05-01T05:25:28.352Z,6.7
2019-05-01T05:30:15.448Z,6.6
2019-05-01T05:35:02.840Z,6.7
2019-05-01T05:39:50.056Z,6.5
2019-05-01T05:44:37.468Z,6.8
2019-05-01T05:49:24.406Z,6.5
2019-05-01T05:54:13.753Z,6.3
2019-05-01T05:59:00.754Z,6.7
2019-05-01T06:03:47.730Z,6.6
2019-05-01T06:08:35.624Z,6.9
2019-05-01T06:13:23.112Z,7
2019-05-01T06:18:10.470Z,6.8
2019-05-01T06:22:57.336Z,6.8
2019-05-01T06:27:49.315Z,6.6
2019-05-01T06:32:39.939Z,6.7
2019-05-01T06:37:27.407Z,6.3
2019-05-01T06:42:15.539Z,6
2019-05-01T06:47:05.100Z,6.1
2019-05-01T06:51:53.189Z,5.8
2019-05-01T06:56:41.126Z,5.1
2019-05-01T07:01:27.831Z,5.3
2019-05-01T07:06:15.369Z,4.6
2019-05-01T07:11:02.392Z,4.7
2019-05-01T07:15:49.668Z,4.2
2019-05-01T07:20:38.629Z,4.5
2019-05-01T07:25:25.847Z,4.7
2019-05-01T07:30:15.864Z,4.4
2019-05-01T07:35:06.731Z,4.6
2019-05-01T07:39:54.248Z,4.4
2019-05-01T07:44:41.149Z,4.6
2019-05-01T07:49:28.369Z,3.8
2019-05-01T07:54:15.153Z,4.5
2019-05-01T07:59:02.249Z,3.8
2019-05-01T08:03:49.088Z,3.7
2019-05-01T08:08:39.603Z,3.7
2019-05-01T08:13:30.700Z,3.8
2019-05-01T08:18:24.145Z,4
2019-05-01T08:23:15.455Z,3.6
2019-05-01T08:28:02.364Z,3.5
2019-05-01T08:32:49.435Z,3.2
2019-05-01T08:37:36.528Z,4
2019-05-01T08:42:23.244Z,3.3
2019-05-01T08:47:10.148Z,3.6
2019-05-01T08:51:56.876Z,3.2
2019-05-01T08:56:44.995Z,3
2019-05-01T09:01:31.958Z,3.5
2019-05-01T09:06:19.197Z,3.4
2019-05-01T09:11:06.828Z,3.5
2019-05-01T09:15:54.699Z,4
2019-05-01T09:20:42.144Z,3.8
2019-05-01T09:25:30.939Z,17.2
2019-05-01T09:30:26.777Z,3.8
2019-05-01T09:35:15.812Z,3.6
2019-05-01T09:40:04.076Z,3.6
2019-05-01T09:44:55.491Z,4.1
2019-05-01T09:49:42.337Z,3.5
2019-05-01T09:54:29.676Z,3.5
2019-05-01T09:59:17.525Z,4
2019-05-01T10:04:06.432Z,3.5
2019-05-01T10:08:54.936Z,4.2
2019-05-01T10:13:42.271Z,4.1
2019-05-01T10:18:29.168Z,4.2
2019-05-01T10:23:18.409Z,7.3
2019-05-01T10:28:07.298Z,5.5
2019-05-01T10:32:59.696Z,5.3
2019-05-01T10:37:47.234Z,5.9
2019-05-01T10:42:34.187Z,6.8
2019-05-01T10:47:21.298Z,6.4
2019-05-01T10:52:14.196Z,6.3
2019-05-01T10:57:06.838Z,9
2019-05-01T11:01:54.938Z,8.7
2019-05-01T11:06:43.640Z,5.1
2019-05-01T11:11:31.374Z,6.1
2019-05-01T11:16:18.551Z,5.9
2019-05-01T11:21:05.788Z,5.3
2019-05-01T11:25:52.719Z,5.8
2019-05-01T11:30:40.924Z,6.3
2019-05-01T11:35:33.646Z,6.2
2019-05-01T11:40:20.916Z,6.4
2019-05-01T11:45:08.413Z,6.7
2019-05-01T11:49:55.800Z,6.6
2019-05-01T11:54:42.908Z,7.8
2019-05-01T11:59:32.585Z,7.5
2019-05-01T12:04:20.892Z,7.4
2019-05-01T12:09:08.535Z,7.2
2019-05-01T12:13:56.953Z,6.9
2019-05-01T12:18:43.770Z,7.7
2019-05-01T12:23:31.567Z,7.7
2019-05-01T12:28:18.557Z,7.6
2019-05-01T12:33:05.324Z,7.8
2019-05-01T12:37:55.269Z,9
2019-05-01T12:42:42.810Z,9.3
2019-05-01T12:47:30.410Z,8.9
2019-05-01T12:52:17.365Z,9.6
2019-05-01T12:57:04.318Z,10.5
2019-05-01T13:01:51.108Z,11
2019-05-01T13:06:48.842Z,11.4
2019-05-01T13:11:37.374Z,13.1
2019-05-01T13:16:25.225Z,12.1
2019-05-01T13:21:12.585Z,15
2019-05-01T13:25:59.772Z,13.6
2019-05-01T13:30:49.050Z,16.4
2019-05-01T13:35:36.160Z,16.2
2019-05-01T13:40:23.294Z,16.7
2019-05-01T13:45:10.406Z,18.6
2019-05-01T13:49:57.249Z,18.8
2019-05-01T13:54:44.294Z,22
2019-05-01T13:59:31.176Z,26.3
2019-05-01T14:04:21.385Z,29.5
2019-05-01T14:09:09.538Z,29.2
2019-05-01T14:13:59.382Z,26.9
2019-05-01T14:18:46.964Z,28.6
2019-05-01T14:23:34.589Z,30.7
2019-05-01T14:28:22.046Z,30.1
2019-05-01T14:33:09.414Z,31.4
2019-05-01T14:37:57.280Z,30.6
2019-05-01T14:42:44.612Z,28.4
2019-05-01T14:47:31.454Z,27.9
2019-05-01T14:52:18.945Z,29.8
2019-05-01T14:57:05.750Z,30.5
2019-05-01T15:01:53.134Z,30.7
2019-05-01T15:06:40.533Z,30.6
2019-05-01T15:11:27.399Z,29.1
2019-05-01T15:16:14.648Z,29
2019-05-01T15:21:02.421Z,29.7
2019-05-01T15:25:49.771Z,30.2
2019-05-01T15:30:36.758Z,27.3
2019-05-01T15:35:25.577Z,25.8
2019-05-01T15:40:13.271Z,27.6
2019-05-01T15:45:00.572Z,25.9
2019-05-01T15:49:47.966Z,23.4
2019-05-01T15:54:36.046Z,24.4
2019-05-01T15:59:25.415Z,24.5
2019-05-01T16:04:14.688Z,22.4
2019-05-01T16:09:01.796Z,23.1
2019-05-01T16:13:49.192Z,22.7
2019-05-01T16:18:36.768Z,22.4
2019-05-01T16:23:24.320Z,22.6
2019-05-01T16:28:11.138Z,20.6
2019-05-01T16:32:58.530Z,17.1
2019-05-01T16:37:45.787Z,18.9
2019-05-01T16:42:32.551Z,18.5
2019-05-01T16:47:19.511Z,18.7
2019-05-01T16:52:07.096Z,19.1
2019-05-01T16:56:54.375Z,18.6
2019-05-01T17:01:41.532Z,18.8
2019-05-01T17:06:28.657Z,20.6
2019-05-01T17:11:17.726Z,21
2019-05-01T17:16:04.705Z,21.1
2019-05-01T17:20:52.587Z,20.1
2019-05-01T17:25:40.887Z,20.1
2019-05-01T17:30:28.126Z,18.9
2019-05-01T17:35:15.685Z,20.6
2019-05-01T17:40:08.287Z,20.9
2019-05-01T17:44:55.924Z,21.1
2019-05-01T17:49:46.814Z,21.9
2019-05-01T17:54:34.069Z,21.8
2019-05-01T17:59:22.270Z,20.2
2019-05-01T18:04:14.685Z,21.5
2019-05-01T18:09:03.164Z,22.9
2019-05-01T18:13:56.861Z,22.8
2019-05-01T18:18:45.229Z,23.2
2019-05-01T18:23:32.017Z,22.3
2019-05-01T18:28:19.199Z,22.3
2019-05-01T18:33:06.026Z,20.8
2019-05-01T18:37:53.401Z,23.3
2019-05-01T18:42:40.533Z,23.3
2019-05-01T18:47:27.460Z,20.9
2019-05-01T18:52:14.571Z,22.8
2019-05-01T18:57:01.837Z,25.1
2019-05-01T19:01:49.723Z,25
2019-05-01T19:06:41.767Z,21.5
2019-05-01T19:11:31.336Z,22.6
2019-05-01T19:16:18.536Z,23.5
2019-05-01T19:21:05.797Z,21.3
2019-05-01T19:25:56.566Z,21.1
2019-05-01T19:30:48.548Z,19.5
2019-05-01T19:35:35.909Z,17.7
2019-05-01T19:40:25.212Z,13.2
2019-05-01T19:45:18.547Z,11.4
2019-05-01T19:50:07.520Z,13.2
2019-05-01T19:55:01.356Z,14.3
2019-05-01T19:59:53.193Z,11.1
2019-05-01T20:04:40.380Z,11.6
2019-05-01T20:09:27.986Z,12.1
2019-05-01T20:14:15.039Z,11.1
2019-05-01T20:19:01.916Z,11.4
2019-05-01T20:23:49.155Z,11.3
2019-05-01T20:28:37.370Z,10
2019-05-01T20:33:24.415Z,9
2019-05-01T20:38:11.249Z,9.4
2019-05-01T20:43:01.098Z,8.6
2019-05-01T20:47:54.366Z,10.4
2019-05-01T20:52:42.173Z,9.4
2019-05-01T20:57:45.506Z,10
2019-05-01T21:02:32.977Z,8.6
2019-05-01T21:07:21.383Z,9.5
2019-05-01T21:12:08.284Z,9.4
2019-05-01T21:16:55.686Z,9.8
2019-05-01T21:21:43.454Z,10.3
2019-05-01T21:26:33.435Z,9.5
2019-05-01T21:31:45.475Z,8.9
2019-05-01T21:36:32.564Z,9.3
2019-05-01T21:41:19.836Z,10.1
2019-05-01T21:46:06.762Z,10.3
2019-05-01T21:50:53.766Z,10.4
2019-05-01T21:55:45.586Z,10.6
2019-05-01T22:00:33.945Z,10
2019-05-01T22:05:21.222Z,9.6
2019-05-01T22:10:08.034Z,10.6
2019-05-01T22:14:54.990Z,10.7
2019-05-01T22:19:42.004Z,8.9
2019-05-01T22:24:28.769Z,11.3
2019-05-01T22:29:15.747Z,10.8
2019-05-01T22:34:02.847Z,10
2019-05-01T22:38:49.826Z,10.4
2019-05-01T22:43:37.497Z,11.9
2019-05-01T22:48:24.783Z,11.1
2019-05-01T22:54:48.931Z,10.8
2019-05-01T22:59:37.110Z,9.7
2019-05-01T23:04:23.835Z,10.5
2019-05-01T23:09:11.028Z,11.5
2019-05-01T23:13:58.216Z,12.1
2019-05-01T23:19:17.902Z,10.4
2019-05-01T23:24:06.480Z,9.8
2019-05-01T23:28:53.663Z,10.2
2019-05-01T23:33:40.410Z,9.4
2019-05-01T23:43:35.816Z,8.6
2019-05-01T23:48:22.519Z,8.4
2019-05-01T23:53:13.975Z,8.9
2019-05-01T23:58:03.318Z,9
